Time;durP1;ratioP1;P1;durP2;ratioP2;P2;SDS_P1;SDS_P2;PMS_P1;PMS_P2;Temp;Humidity;BMP_temperature;BMP_pressure;BME280_temperature;BME280_humidity;BME280_pressure;Samples;Min_cycle;Max_cycle;Signal;HPM_P1;HPM_P2
2023/03/27 00:01:25;;;;;;;3.00;2.80;;;9.20;99.90;;;;;;10320925;28;20198;-81
2023/03/27 00:06:27;;;;;;;2.50;2.40;;;9.30;99.90;;;;;;10299639;28;20254;-80
2023/03/27 00:11:30;;;;;;;3.00;2.77;;;9.30;99.90;;;;;;10317680;28;20273;-79
2023/03/27 00:16:32;;;;;;;2.67;2.57;;;9.30;99.90;;;;;;10317602;28;20228;-81
2023/03/27 00:21:34;;;;;;;1.70;1.70;;;9.40;99.90;;;;;;10323083;28;20207;-81
2023/03/27 00:26:39;;;;;;;2.70;2.60;;;9.40;99.90;;;;;;10310554;28;20692;-81
2023/03/27 00:31:41;;;;;;;2.80;2.70;;;9.30;99.90;;;;;;10310390;28;20715;-80
2023/03/27 00:36:47;;;;;;;3.07;2.97;;;9.30;99.90;;;;;;10315918;28;20210;-81
2023/03/27 00:41:50;;;;;;;3.50;3.40;;;9.30;99.90;;;;;;10301453;28;20571;-81
2023/03/27 00:46:55;;;;;;;3.20;3.10;;;9.30;99.90;;;;;;10304758;28;20674;-80
2023/03/27 00:52:00;;;;;;;3.70;3.50;;;9.20;99.90;;;;;;10318601;28;20264;-80
2023/03/27 00:57:06;;;;;;;3.80;3.50;;;9.20;99.90;;;;;;10297982;28;20237;-81
2023/03/27 01:02:09;;;;;;;3.17;3.07;;;9.20;99.90;;;;;;10309140;28;20207;-81
2023/03/27 01:07:11;;;;;;;3.33;3.23;;;9.10;99.90;;;;;;10301263;28;20220;-80
2023/03/27 01:12:29;;;;;;;3.30;3.20;;;9.10;99.90;;;;;;10313702;28;20300;-80
2023/03/27 01:17:41;;;;;;;3.03;2.87;;;9.10;99.90;;;;;;10325146;28;20233;-79
2023/03/27 01:23:27;;;;;;;3.20;3.10;;;9.10;99.90;;;;;;10352007;28;20673;-79
2023/03/27 01:28:49;;;;;;;2.87;2.77;;;9.00;99.90;;;;;;10260783;28;20217;-80
2023/03/27 01:34:08;;;;;;;3.10;3.00;;;8.90;99.90;;;;;;10277672;28;20665;-79
2023/03/27 01:39:30;;;;;;;3.03;2.93;;;8.70;99.90;;;;;;10322396;28;20197;-79
2023/03/27 01:44:40;;;;;;;2.90;2.80;;;8.70;99.90;;;;;;10280318;28;20620;-80
2023/03/27 01:49:48;;;;;;;3.20;3.10;;;8.60;99.90;;;;;;10296146;28;20236;-79
2023/03/27 01:55:02;;;;;;;4.03;3.80;;;8.60;99.90;;;;;;10328160;28;20224;-80
2023/03/27 02:00:13;;;;;;;3.77;3.67;;;8.60;99.90;;;;;;10278365;28;20209;-79
2023/03/27 02:05:26;;;;;;;3.50;3.40;;;8.60;99.90;;;;;;10339353;28;20738;-79
2023/03/27 02:10:35;;;;;;;3.67;3.57;;;8.60;99.90;;;;;;10298353;28;20200;-79
2023/03/27 02:15:47;;;;;;;3.97;3.67;;;8.50;99.90;;;;;;10306413;28;20243;-79
2023/03/27 02:20:49;;;;;;;6.37;5.33;;;8.50;99.90;;;;;;10290374;28;20206;-78
2023/03/27 02:25:54;;;;;;;11.00;6.07;;;8.40;99.90;;;;;;10274804;28;20303;-79
2023/03/27 02:31:05;;;;;;;8.93;7.67;;;8.20;99.90;;;;;;10306637;28;20207;-79
2023/03/27 02:36:19;;;;;;;10.37;8.20;;;8.10;99.90;;;;;;10291411;28;20612;-80
2023/03/27 02:41:33;;;;;;;9.80;8.80;;;8.00;99.90;;;;;;10332476;28;20252;-80
2023/03/27 02:47:05;;;;;;;14.20;9.30;;;7.90;99.90;;;;;;10327049;28;20210;-80
2023/03/27 02:52:13;;;;;;;14.10;9.63;;;7.80;99.90;;;;;;10283998;28;20658;-81
2023/03/27 02:57:20;;;;;;;16.63;10.40;;;7.70;99.90;;;;;;10392937;23;20228;-81
2023/03/27 03:02:44;;;;;;;13.70;10.30;;;7.70;99.90;;;;;;10422295;28;20198;-80
2023/03/27 03:07:47;;;;;;;18.00;11.30;;;7.50;99.90;;;;;;10424343;28;20224;-77
2023/03/27 03:12:50;;;;;;;16.00;10.70;;;7.40;99.90;;;;;;10428023;28;20241;-83
2023/03/27 03:17:53;;;;;;;16.47;11.90;;;7.40;99.90;;;;;;10427858;28;20645;-83
2023/03/27 03:22:56;;;;;;;18.27;12.30;;;7.30;99.90;;;;;;10435252;28;20210;-81
2023/03/27 03:27:59;;;;;;;16.47;11.00;;;7.20;99.90;;;;;;10431554;28;20268;-78
2023/03/27 03:33:01;;;;;;;11.80;10.40;;;7.20;99.90;;;;;;10419661;28;20312;-82
2023/03/27 03:38:05;;;;;;;13.87;11.10;;;7.10;99.90;;;;;;10420906;28;20226;-82
2023/03/27 03:43:19;;;;;;;13.27;10.27;;;7.00;99.90;;;;;;10422534;28;20566;-81
2023/03/27 03:48:22;;;;;;;13.07;11.17;;;7.00;99.90;;;;;;10422237;28;20664;-83
2023/03/27 03:53:24;;;;;;;18.60;10.90;;;7.00;99.90;;;;;;10422736;28;20682;-82
2023/03/27 03:58:28;;;;;;;12.47;9.90;;;7.00;99.90;;;;;;10420742;28;20596;-81
2023/03/27 04:03:31;;;;;;;14.80;9.00;;;7.00;99.90;;;;;;10400875;28;20244;-82
2023/03/27 04:08:34;;;;;;;12.30;7.90;;;7.00;99.90;;;;;;10421953;28;20229;-83
2023/03/27 04:13:41;;;;;;;14.50;7.97;;;6.90;99.90;;;;;;10442479;28;20297;-81
2023/03/27 04:18:55;;;;;;;14.63;7.40;;;6.80;99.90;;;;;;10406487;28;20256;-81
2023/03/27 04:24:01;;;;;;;12.73;7.37;;;6.80;99.90;;;;;;10425576;28;20199;-81
2023/03/27 04:29:21;;;;;;;14.30;7.73;;;6.80;99.90;;;;;;10423165;28;20257;-81
2023/03/27 04:34:37;;;;;;;14.07;6.47;;;6.80;99.90;;;;;;10426146;28;20260;-82
2023/03/27 04:40:09;;;;;;;10.70;5.30;;;6.80;99.90;;;;;;10443127;28;20216;-82
2023/03/27 04:45:15;;;;;;;11.47;5.50;;;6.80;99.90;;;;;;10443587;28;20223;-82
2023/03/27 04:50:20;;;;;;;11.47;5.30;;;6.80;99.90;;;;;;10445266;28;20263;-82
2023/03/27 04:55:24;;;;;;;10.27;5.27;;;6.90;99.90;;;;;;10439664;28;20225;-82
2023/03/27 05:00:29;;;;;;;8.53;4.60;;;6.90;99.90;;;;;;10417743;28;20195;-82
2023/03/27 05:06:10;;;;;;;8.87;4.53;;;6.90;99.90;;;;;;10424116;28;20293;-85
2023/03/27 05:11:13;;;;;;;8.37;4.50;;;6.80;99.90;;;;;;10421976;28;20190;-84
2023/03/27 05:16:19;;;;;;;6.77;4.03;;;6.80;99.90;;;;;;10424016;28;20691;-85
2023/03/27 05:21:26;;;;;;;13.43;4.23;;;6.80;99.90;;;;;;10405048;28;20240;-85
2023/03/27 05:26:28;;;;;;;10.77;3.90;;;6.80;99.90;;;;;;10427380;28;20217;-85
2023/03/27 05:31:35;;;;;;;10.17;4.00;;;6.70;99.90;;;;;;10422765;28;20240;-83
2023/03/27 05:37:05;;;;;;;6.53;3.30;;;6.70;99.90;;;;;;10420016;28;20290;-86
2023/03/27 05:42:10;;;;;;;6.30;3.27;;;6.70;99.90;;;;;;10406058;28;20198;-83
2023/03/27 05:47:14;;;;;;;9.37;3.80;;;6.70;99.90;;;;;;10420897;28;20698;-84
2023/03/27 05:52:16;;;;;;;7.47;3.53;;;6.60;99.90;;;;;;10408265;28;20735;-84
2023/03/27 05:57:20;;;;;;;10.83;4.40;;;6.60;99.90;;;;;;10429770;28;20230;-83
2023/03/27 06:02:26;;;;;;;6.50;3.80;;;6.60;99.90;;;;;;10429935;28;20196;-83
2023/03/27 06:07:35;;;;;;;12.40;3.73;;;6.60;99.90;;;;;;10425019;28;20278;-85
2023/03/27 06:12:41;;;;;;;6.83;3.23;;;6.60;99.90;;;;;;10420441;28;20240;-83
2023/03/27 06:17:55;;;;;;;11.30;3.67;;;6.60;99.50;;;;;;10401750;28;20221;-82
2023/03/27 06:22:59;;;;;;;6.50;3.10;;;6.60;99.90;;;;;;10423858;28;20206;-79
2023/03/27 06:28:08;;;;;;;9.73;3.87;;;6.60;99.80;;;;;;10411798;28;20782;-80
2023/03/27 06:33:18;;;;;;;6.70;3.30;;;6.70;99.60;;;;;;10399009;28;20207;-80
2023/03/27 06:38:20;;;;;;;6.60;3.57;;;6.70;99.90;;;;;;10398048;28;20695;-81
2023/03/27 06:43:23;;;;;;;8.70;3.63;;;6.80;99.20;;;;;;10396963;28;20562;-81
2023/03/27 06:48:38;;;;;;;9.53;3.30;;;6.80;98.90;;;;;;10414566;28;20214;-82
2023/03/27 06:53:42;;;;;;;9.37;3.37;;;7.00;99.30;;;;;;10404388;28;20214;-81
2023/03/27 06:58:44;;;;;;;5.87;3.20;;;7.10;98.20;;;;;;10412423;28;20303;-82
2023/03/27 07:03:48;;;;;;;7.87;3.47;;;7.20;99.00;;;;;;10412359;28;20186;-81
2023/03/27 07:09:20;;;;;;;5.93;2.90;;;7.30;98.00;;;;;;10412042;28;20594;-82
2023/03/27 07:14:33;;;;;;;9.60;3.20;;;7.40;97.60;;;;;;10394428;28;20279;-81
2023/03/27 07:19:36;;;;;;;8.93;3.77;;;7.50;97.50;;;;;;10395082;28;20635;-82
2023/03/27 07:24:43;;;;;;;6.47;3.23;;;7.60;96.90;;;;;;10395101;28;20214;-81
2023/03/27 07:29:46;;;;;;;6.43;3.20;;;7.70;96.40;;;;;;10411741;28;20199;-80
2023/03/27 07:34:57;;;;;;;4.67;2.80;;;7.90;96.40;;;;;;10397294;28;20214;-82
2023/03/27 07:40:34;;;;;;;5.80;3.10;;;8.00;96.20;;;;;;10418134;28;20273;-85
2023/03/27 07:45:57;;;;;;;5.67;3.10;;;8.40;96.30;;;;;;10415500;28;20226;-83
2023/03/27 07:51:02;;;;;;;7.80;2.97;;;8.50;94.80;;;;;;10403509;28;20213;-82
2023/03/27 07:56:07;;;;;;;5.10;2.80;;;8.50;95.40;;;;;;10421707;28;20285;-83
2023/03/27 08:01:10;;;;;;;8.03;2.97;;;8.50;94.20;;;;;;10434861;28;20254;-82
2023/03/27 08:06:15;;;;;;;12.93;3.70;;;8.50;94.70;;;;;;10420997;28;20219;-82
2023/03/27 08:11:18;;;;;;;5.90;2.90;;;8.50;93.90;;;;;;10423412;28;20297;-83
2023/03/27 08:16:23;;;;;;;5.03;2.60;;;8.50;93.40;;;;;;10420307;28;20248;-82
2023/03/27 08:21:30;;;;;;;9.87;3.33;;;8.60;92.80;;;;;;10421374;28;20328;-80
2023/03/27 08:26:33;;;;;;;5.10;2.27;;;8.60;92.50;;;;;;10422979;28;20578;-82
2023/03/27 08:31:41;;;;;;;6.33;2.40;;;8.70;92.90;;;;;;10421733;28;20193;-82
2023/03/27 08:36:45;;;;;;;3.93;2.60;;;8.70;92.10;;;;;;10423642;28;20335;-83
2023/03/27 08:41:53;;;;;;;4.27;2.40;;;8.60;91.20;;;;;;10425735;28;20246;-83
2023/03/27 08:47:05;;;;;;;4.40;2.27;;;8.60;92.30;;;;;;10409875;28;20703;-83
2023/03/27 08:52:16;;;;;;;4.47;2.40;;;8.60;92.20;;;;;;10427790;28;20241;-83
2023/03/27 08:57:27;;;;;;;4.10;2.13;;;8.70;91.90;;;;;;10494017;22;20243;-83
2023/03/27 09:02:43;;;;;;;6.33;2.40;;;8.70;91.60;;;;;;10527667;28;20189;-83
2023/03/27 09:08:02;;;;;;;8.37;2.70;;;8.70;92.10;;;;;;10526699;28;20205;-83
2023/03/27 09:13:14;;;;;;;6.20;2.50;;;8.80;90.60;;;;;;10485093;28;20186;-84
2023/03/27 09:18:21;;;;;;;3.43;1.90;;;8.80;88.00;;;;;;10483938;28;20722;-85
2023/03/27 09:23:34;;;;;;;8.87;2.20;;;8.90;88.80;;;;;;10484030;28;20656;-83
2023/03/27 09:28:57;;;;;;;3.73;2.37;;;9.00;89.70;;;;;;10501174;28;20218;-85
2023/03/27 09:34:07;;;;;;;4.30;2.40;;;9.10;87.80;;;;;;10500713;28;20210;-84
2023/03/27 09:39:20;;;;;;;4.27;2.17;;;9.10;89.70;;;;;;10484071;28;20227;-85
2023/03/27 09:44:27;;;;;;;5.00;2.63;;;9.30;85.70;;;;;;10483402;28;20227;-85
2023/03/27 09:49:35;;;;;;;4.83;2.40;;;9.40;86.60;;;;;;10483893;28;20250;-86
2023/03/27 09:54:53;;;;;;;3.63;2.00;;;9.70;86.10;;;;;;10483389;28;20630;-85
2023/03/27 10:00:08;;;;;;;4.30;2.20;;;9.80;86.60;;;;;;10500654;28;20179;-85
2023/03/27 10:05:18;;;;;;;5.30;2.33;;;10.00;86.90;;;;;;10499651;28;20234;-86
2023/03/27 10:10:31;;;;;;;3.43;2.00;;;10.00;83.40;;;;;;10484303;28;20203;-85
2023/03/27 10:15:40;;;;;;;4.33;2.40;;;9.90;79.80;;;;;;10500849;28;20302;-86
2023/03/27 10:20:50;;;;;;;4.60;2.20;;;9.80;80.70;;;;;;10498727;28;20204;-86
2023/03/27 10:25:59;;;;;;;6.63;2.80;;;9.70;81.40;;;;;;10481970;28;20248;-84
2023/03/27 10:31:26;;;;;;;4.27;2.00;;;9.80;79.00;;;;;;10481732;28;20551;-85
2023/03/27 10:36:48;;;;;;;5.50;2.70;;;9.60;78.70;;;;;;10496779;28;20975;-85
2023/03/27 10:41:55;;;;;;;3.00;2.67;;;9.40;81.30;;;;;;10484319;28;20399;-86
2023/03/27 10:46:58;;;;;;;7.77;2.60;;;9.30;81.30;;;;;;10488806;28;20236;-85
2023/03/27 10:52:11;;;;;;;5.20;2.30;;;9.40;81.00;;;;;;10466030;28;20216;-86
2023/03/27 10:57:36;;;;;;;3.97;2.17;;;9.50;76.90;;;;;;10460699;28;20234;-86
2023/03/27 11:02:44;;;;;;;5.53;2.67;;;9.30;77.20;;;;;;10489394;28;20209;-86
2023/03/27 11:07:52;;;;;;;5.47;2.60;;;9.20;82.50;;;;;;10479643;28;20244;-86
2023/03/27 11:13:03;;;;;;;3.40;2.60;;;9.30;84.20;;;;;;10475749;28;20203;-85
2023/03/27 11:18:13;;;;;;;4.37;2.40;;;9.40;79.50;;;;;;10455694;28;20219;-86
2023/03/27 11:23:30;;;;;;;4.03;2.03;;;9.50;77.90;;;;;;10492851;28;20249;-85
2023/03/27 11:28:57;;;;;;;6.23;2.43;;;9.70;78.50;;;;;;10497293;28;20242;-86
2023/03/27 11:34:14;;;;;;;3.10;2.00;;;9.90;77.80;;;;;;10486208;28;20194;-86
2023/03/27 11:39:26;;;;;;;3.70;2.23;;;9.80;75.40;;;;;;10516924;28;20200;-86
2023/03/27 11:44:31;;;;;;;3.33;2.20;;;9.90;76.60;;;;;;10456534;28;20241;-86
2023/03/27 11:50:04;;;;;;;7.03;2.57;;;9.90;79.10;;;;;;10480731;28;20200;-86
2023/03/27 11:55:23;;;;;;;4.03;2.63;;;9.90;82.80;;;;;;10493432;28;20228;-85
2023/03/27 12:00:35;;;;;;;4.13;2.40;;;9.90;81.90;;;;;;10451628;28;20201;-86
2023/03/27 12:05:49;;;;;;;5.20;2.70;;;9.70;80.70;;;;;;10463326;28;20683;-86
2023/03/27 12:10:54;;;;;;;4.00;2.57;;;9.50;81.90;;;;;;10467132;28;20201;-86
2023/03/27 12:16:48;;;;;;;5.13;2.23;;;9.60;82.70;;;;;;10480155;28;20240;-85
2023/03/27 12:22:06;;;;;;;2.80;1.83;;;9.70;80.10;;;;;;10461437;28;20243;-86
2023/03/27 12:27:26;;;;;;;2.87;1.87;;;9.70;77.60;;;;;;10462817;28;20635;-85
2023/03/27 12:33:18;;;;;;;4.00;2.60;;;9.80;74.90;;;;;;10493280;28;20222;-86
2023/03/27 12:38:26;;;;;;;4.87;1.83;;;9.90;77.10;;;;;;10469075;28;20216;-86
2023/03/27 12:43:32;;;;;;;4.93;2.50;;;9.90;78.10;;;;;;10458387;28;20291;-86
2023/03/27 12:48:57;;;;;;;3.10;1.93;;;9.90;77.50;;;;;;10468379;28;20225;-85
2023/03/27 12:54:13;;;;;;;3.73;2.00;;;10.00;76.20;;;;;;10477906;28;20199;-86
2023/03/27 12:59:22;;;;;;;4.80;2.00;;;10.00;77.60;;;;;;10464002;28;20680;-85
2023/03/27 13:04:47;;;;;;;2.63;2.03;;;10.00;75.40;;;;;;10456687;28;20288;-86
2023/03/27 13:10:09;;;;;;;2.13;1.80;;;10.00;77.40;;;;;;10474640;28;20200;-86
2023/03/27 13:15:29;;;;;;;6.57;2.00;;;10.30;76.90;;;;;;10479600;28;20555;-85
2023/03/27 13:20:44;;;;;;;3.40;1.50;;;10.50;76.30;;;;;;10468227;28;20199;-85
2023/03/27 13:26:12;;;;;;;3.17;1.97;;;10.60;74.40;;;;;;10445219;28;20601;-86
2023/03/27 13:32:02;;;;;;;6.77;2.80;;;10.60;76.80;;;;;;10476062;28;20205;-86
2023/03/27 13:37:52;;;;;;;4.90;2.53;;;10.40;77.50;;;;;;10461594;28;20228;-86
2023/03/27 13:43:24;;;;;;;5.93;2.60;;;10.30;80.60;;;;;;10481497;28;20660;-86
2023/03/27 13:49:19;;;;;;;4.50;2.60;;;10.30;84.30;;;;;;10476285;28;20663;-86
2023/03/27 13:55:33;;;;;;;4.10;2.60;;;10.20;85.90;;;;;;10433718;28;20220;-85
2023/03/27 14:01:32;;;;;;;4.27;2.67;;;10.00;87.10;;;;;;10483735;28;20206;-86
2023/03/27 14:07:11;;;;;;;7.70;2.30;;;9.70;91.50;;;;;;10502689;28;20288;-86
2023/03/27 14:12:30;;;;;;;4.40;2.73;;;9.50;92.80;;;;;;10429967;28;20216;-86
2023/03/27 14:18:10;;;;;;;4.10;2.50;;;9.40;93.50;;;;;;10446804;28;20250;-86
2023/03/27 14:23:20;;;;;;;10.37;3.00;;;9.30;93.90;;;;;;10447768;28;20628;-85
2023/03/27 14:28:45;;;;;;;5.27;2.80;;;9.20;93.80;;;;;;10480490;28;20697;-86
2023/03/27 14:33:50;;;;;;;5.50;2.97;;;9.20;94.40;;;;;;10473554;28;20195;-86
2023/03/27 14:38:54;;;;;;;4.53;3.00;;;9.20;94.10;;;;;;10497713;28;20211;-86
2023/03/27 14:44:12;;;;;;;5.60;2.77;;;9.30;93.20;;;;;;10466786;28;20555;-86
2023/03/27 14:49:22;;;;;;;2.83;2.50;;;9.30;93.00;;;;;;10454449;28;20213;-86
2023/03/27 14:54:29;;;;;;;2.60;2.40;;;9.40;93.40;;;;;;10480288;28;20286;-85
2023/03/27 14:59:40;;;;;;;5.37;2.70;;;9.60;93.40;;;;;;10481699;28;20282;-84
2023/03/27 15:04:47;;;;;;;5.60;2.40;;;9.80;92.60;;;;;;10496988;28;20216;-83
2023/03/27 15:10:02;;;;;;;4.00;2.27;;;9.90;91.80;;;;;;10485920;28;20253;-84
2023/03/27 15:15:38;;;;;;;3.37;2.60;;;10.10;91.10;;;;;;10487897;28;20305;-83
2023/03/27 15:20:43;;;;;;;3.03;2.23;;;10.10;91.00;;;;;;10447947;28;20666;-83
2023/03/27 15:25:54;;;;;;;5.40;2.90;;;10.10;91.20;;;;;;10447679;28;20269;-83
2023/03/27 15:31:00;;;;;;;4.47;2.43;;;10.10;91.20;;;;;;10447950;28;20198;-84
2023/03/27 15:36:08;;;;;;;4.00;2.87;;;10.10;90.60;;;;;;10464970;28;20214;-86
2023/03/27 15:41:40;;;;;;;7.00;2.63;;;10.00;91.10;;;;;;10506044;28;20166;-84
2023/03/27 15:46:52;;;;;;;4.03;2.43;;;9.80;93.20;;;;;;10484245;28;20229;-85
2023/03/27 15:51:59;;;;;;;3.67;3.37;;;9.50;93.80;;;;;;10504995;28;20549;-86
2023/03/27 15:57:05;;;;;;;2.70;2.50;;;9.20;95.20;;;;;;10488139;28;20428;-84
2023/03/27 16:02:13;;;;;;;3.10;2.67;;;8.90;96.80;;;;;;10487455;28;20220;-86
2023/03/27 16:07:20;;;;;;;4.47;3.10;;;8.70;97.50;;;;;;10487178;28;20233;-86
2023/03/27 16:12:29;;;;;;;2.87;2.60;;;8.50;97.60;;;;;;10463669;28;20199;-86
2023/03/27 16:17:33;;;;;;;2.67;2.47;;;8.40;98.60;;;;;;10461984;28;20210;-84
2023/03/27 16:22:38;;;;;;;2.40;2.20;;;8.40;97.50;;;;;;10461520;28;20552;-84
2023/03/27 16:27:44;;;;;;;4.03;2.47;;;8.30;97.30;;;;;;10469799;28;20584;-85
2023/03/27 16:32:46;;;;;;;2.63;2.43;;;8.30;97.50;;;;;;10491478;28;20276;-82
2023/03/27 16:37:50;;;;;;;2.10;2.00;;;8.20;96.80;;;;;;10500086;28;20215;-83
2023/03/27 16:42:52;;;;;;;5.87;2.50;;;8.10;96.30;;;;;;10474608;28;20291;-84
2023/03/27 16:47:55;;;;;;;2.33;2.13;;;7.90;97.90;;;;;;10481333;28;20762;-85
2023/03/27 16:52:59;;;;;;;4.10;2.30;;;7.80;98.50;;;;;;10474641;28;20275;-84
2023/03/27 16:58:02;;;;;;;2.67;2.47;;;7.80;98.40;;;;;;10493660;28;20217;-83
2023/03/27 17:03:04;;;;;;;2.43;2.23;;;7.90;99.20;;;;;;10477453;28;20263;-84
2023/03/27 17:08:07;;;;;;;2.83;2.43;;;7.90;98.60;;;;;;10492863;28;20308;-84
2023/03/27 17:13:09;;;;;;;2.30;2.20;;;7.90;98.60;;;;;;10478016;28;20190;-82
2023/03/27 17:18:11;;;;;;;2.73;2.53;;;8.00;98.40;;;;;;10480317;28;20245;-83
2023/03/27 17:23:15;;;;;;;3.07;2.73;;;8.00;98.70;;;;;;10484656;28;20207;-85
2023/03/27 17:28:18;;;;;;;3.13;2.93;;;8.00;98.10;;;;;;10487860;28;20220;-86
2023/03/27 17:33:20;;;;;;;2.97;2.70;;;7.90;98.30;;;;;;10507693;28;20190;-86
2023/03/27 17:38:23;;;;;;;2.40;2.20;;;7.90;98.40;;;;;;10517106;28;20218;-84
2023/03/27 17:43:25;;;;;;;2.90;2.57;;;7.90;97.70;;;;;;10501736;28;20199;-83
2023/03/27 17:48:28;;;;;;;2.60;2.50;;;7.80;96.90;;;;;;10480452;28;20223;-84
2023/03/27 17:53:31;;;;;;;5.70;4.20;;;7.60;97.80;;;;;;10490393;28;20185;-85
2023/03/27 17:58:35;;;;;;;3.17;2.80;;;7.50;98.50;;;;;;10495413;28;20225;-84
2023/03/27 18:03:37;;;;;;;3.20;3.00;;;7.50;98.40;;;;;;10482587;28;20202;-85
2023/03/27 18:08:41;;;;;;;5.03;3.33;;;7.40;98.10;;;;;;10485659;28;20244;-84
2023/03/27 18:13:43;;;;;;;2.83;2.63;;;7.40;98.00;;;;;;10457589;28;20203;-83
2023/03/27 18:18:46;;;;;;;3.13;2.93;;;7.40;97.70;;;;;;10474010;28;20219;-84
2023/03/27 18:23:50;;;;;;;4.50;3.30;;;7.40;98.10;;;;;;10489635;28;20201;-83
2023/03/27 18:28:55;;;;;;;5.40;3.70;;;7.40;98.60;;;;;;10481241;28;20225;-83
2023/03/27 18:33:57;;;;;;;4.03;3.70;;;7.30;99.00;;;;;;10471747;28;20715;-85
2023/03/27 18:39:00;;;;;;;4.03;3.63;;;7.40;98.60;;;;;;10492205;28;20213;-86
2023/03/27 18:44:02;;;;;;;5.30;4.30;;;7.40;99.60;;;;;;10489832;28;20197;-87
2023/03/27 18:49:05;;;;;;;5.80;4.30;;;7.40;99.40;;;;;;10494105;28;20252;-85
2023/03/27 18:54:08;;;;;;;5.30;4.70;;;7.30;98.80;;;;;;10498264;28;20250;-84
2023/03/27 18:59:10;;;;;;;4.67;3.90;;;7.40;98.80;;;;;;10488753;28;20290;-84
2023/03/27 19:04:13;;;;;;;2.70;2.50;;;7.40;98.80;;;;;;10460121;28;20331;-85
2023/03/27 19:09:16;;;;;;;2.97;2.77;;;7.30;98.50;;;;;;10450499;28;20222;-85
2023/03/27 19:14:18;;;;;;;2.83;2.63;;;7.20;98.40;;;;;;10462792;28;20199;-84
2023/03/27 19:19:55;;;;;;;3.77;3.23;;;7.30;98.10;;;;;;10492974;28;20543;-83
2023/03/27 19:25:17;;;;;;;2.57;2.47;;;7.40;98.30;;;;;;10489931;28;21028;-85
2023/03/27 19:30:19;;;;;;;3.10;2.27;;;7.50;98.00;;;;;;10521055;28;20220;-85
2023/03/27 19:35:22;;;;;;;2.53;2.33;;;7.50;98.20;;;;;;10452313;28;20223;-84
2023/03/27 19:40:25;;;;;;;4.60;4.20;;;7.40;98.30;;;;;;10455631;28;20200;-86
2023/03/27 19:45:27;;;;;;;4.80;4.30;;;7.30;99.00;;;;;;10456644;28;20222;-83
2023/03/27 19:50:30;;;;;;;3.17;2.87;;;7.30;99.10;;;;;;10488466;28;20693;-84
2023/03/27 19:55:51;;;;;;;4.00;3.37;;;7.30;99.50;;;;;;10480190;28;20253;-83
2023/03/27 20:00:53;;;;;;;4.27;3.20;;;7.30;99.60;;;;;;10486661;28;20286;-84
2023/03/27 20:05:57;;;;;;;3.40;3.10;;;7.30;99.80;;;;;;10510415;28;20345;-84
2023/03/27 20:11:00;;;;;;;2.90;2.70;;;7.30;99.60;;;;;;10489277;28;20204;-83
2023/03/27 20:16:03;;;;;;;3.07;2.77;;;7.40;99.50;;;;;;10465963;28;20302;-84
2023/03/27 20:21:08;;;;;;;3.13;2.80;;;7.40;99.60;;;;;;10482401;28;20198;-84
2023/03/27 20:26:12;;;;;;;3.47;3.27;;;7.30;99.80;;;;;;10467071;28;20212;-84
2023/03/27 20:31:19;;;;;;;3.43;3.13;;;7.30;99.90;;;;;;10515982;28;20202;-84
2023/03/27 20:36:22;;;;;;;3.50;3.30;;;7.20;99.90;;;;;;10481663;28;20231;-85
2023/03/27 20:41:29;;;;;;;4.00;3.67;;;7.10;99.50;;;;;;10469870;28;20240;-85
2023/03/27 20:46:32;;;;;;;3.90;3.57;;;7.10;99.60;;;;;;10480052;28;20304;-84
2023/03/27 20:51:34;;;;;;;3.50;3.30;;;7.10;99.70;;;;;;10468399;28;20253;-85
2023/03/27 20:56:37;;;;;;;3.53;3.07;;;7.10;99.80;;;;;;10464515;28;20575;-85
2023/03/27 21:01:42;;;;;;;2.77;2.67;;;7.20;99.00;;;;;;10464458;28;20197;-83
2023/03/27 21:06:44;;;;;;;3.10;2.80;;;7.20;98.10;;;;;;10505126;28;20218;-83
2023/03/27 21:11:48;;;;;;;3.13;2.60;;;7.20;98.00;;;;;;10522708;28;20201;-83
2023/03/27 21:16:50;;;;;;;3.83;2.87;;;7.20;98.40;;;;;;10476343;28;20214;-83
2023/03/27 21:21:55;;;;;;;2.87;2.67;;;7.20;98.60;;;;;;10484295;28;20210;-83
2023/03/27 21:26:58;;;;;;;2.73;2.60;;;7.20;98.20;;;;;;10463942;28;20657;-83
2023/03/27 21:32:00;;;;;;;2.37;2.27;;;7.10;98.00;;;;;;10475640;28;20558;-86
2023/03/27 21:37:02;;;;;;;2.93;2.73;;;7.10;98.10;;;;;;10484743;28;20213;-84
2023/03/27 21:42:06;;;;;;;3.00;2.80;;;7.10;97.50;;;;;;10489921;28;20247;-85
2023/03/27 21:47:08;;;;;;;2.83;2.53;;;7.00;97.70;;;;;;10487815;28;20228;-85
2023/03/27 21:52:10;;;;;;;2.70;2.50;;;7.00;97.80;;;;;;10514332;28;20224;-84
2023/03/27 21:57:14;;;;;;;2.80;2.60;;;7.00;97.10;;;;;;10509205;28;20571;-85
2023/03/27 22:02:16;;;;;;;2.80;2.13;;;6.90;97.80;;;;;;10493074;28;20603;-85
2023/03/27 22:07:18;;;;;;;2.23;2.10;;;6.90;97.90;;;;;;10477357;28;20212;-84
2023/03/27 22:12:22;;;;;;;2.40;2.10;;;6.80;97.20;;;;;;10495946;28;20327;-85
2023/03/27 22:17:24;;;;;;;3.13;2.77;;;6.80;97.70;;;;;;10486614;28;20236;-84
2023/03/27 22:22:27;;;;;;;2.77;2.57;;;6.80;97.20;;;;;;10500274;28;20201;-85
2023/03/27 22:27:31;;;;;;;3.63;3.00;;;6.70;96.70;;;;;;10479390;28;20221;-86
2023/03/27 22:32:33;;;;;;;3.00;2.73;;;6.70;96.70;;;;;;10471581;28;20194;-85
2023/03/27 22:37:38;;;;;;;4.57;2.80;;;6.60;96.80;;;;;;10477359;28;20639;-85
2023/03/27 22:42:45;;;;;;;2.80;2.60;;;6.60;97.70;;;;;;10486526;28;20201;-84
2023/03/27 22:47:49;;;;;;;2.97;2.77;;;6.50;98.20;;;;;;10471284;28;20214;-85
2023/03/27 22:52:51;;;;;;;7.87;6.20;;;6.50;98.10;;;;;;10473052;28;20679;-84
2023/03/27 22:57:55;;;;;;;3.20;3.00;;;6.50;98.10;;;;;;10468608;28;20219;-84
2023/03/27 23:02:57;;;;;;;3.33;3.03;;;6.50;98.00;;;;;;10474687;28;20236;-83
2023/03/27 23:07:59;;;;;;;2.77;2.57;;;6.40;97.80;;;;;;10488777;28;20638;-84
2023/03/27 23:13:02;;;;;;;2.50;2.30;;;6.40;97.60;;;;;;10469651;28;20196;-83
2023/03/27 23:18:05;;;;;;;2.70;2.50;;;6.40;97.70;;;;;;10454247;28;20246;-84
2023/03/27 23:23:09;;;;;;;2.60;2.40;;;6.40;97.20;;;;;;10472767;28;20193;-83
2023/03/27 23:28:12;;;;;;;3.00;2.67;;;6.40;96.90;;;;;;10454920;28;20227;-83
2023/03/27 23:33:14;;;;;;;2.57;2.37;;;6.40;97.00;;;;;;10475287;28;20250;-83
2023/03/27 23:38:16;;;;;;;4.23;3.00;;;6.50;97.20;;;;;;10494357;28;20297;-84
2023/03/27 23:43:20;;;;;;;2.73;2.53;;;6.40;97.30;;;;;;10478190;28;20200;-84
2023/03/27 23:48:22;;;;;;;4.53;3.40;;;6.50;97.00;;;;;;10470773;28;20250;-83
2023/03/27 23:53:26;;;;;;;5.00;3.40;;;6.40;96.40;;;;;;10467307;28;20218;-83
2023/03/27 23:58:31;;;;;;;3.43;3.20;;;6.30;97.20;;;;;;10494864;28;20575;-83
